sensor_id;sensor_type;location;lat;lon;timestamp;P1;durP1;ratioP1;P2;durP2;ratioP2
3841;SDS011;1936;47.074;15.336;2024-03-08T00:01:06;10.30;;;7.63;;
3841;SDS011;1936;47.074;15.336;2024-03-08T00:03:11;10.93;;;7.15;;
3841;SDS011;1936;47.074;15.336;2024-03-08T00:05:14;9.05;;;6.47;;
3841;SDS011;1936;47.074;15.336;2024-03-08T00:07:19;11.15;;;7.15;;
3841;SDS011;1936;47.074;15.336;2024-03-08T00:09:23;9.77;;;6.43;;
3841;SDS011;1936;47.074;15.336;2024-03-08T00:11:28;8.30;;;6.65;;
3841;SDS011;1936;47.074;15.336;2024-03-08T00:13:32;12.20;;;7.15;;
3841;SDS011;1936;47.074;15.336;2024-03-08T00:15:37;10.10;;;6.82;;
3841;SDS011;1936;47.074;15.336;2024-03-08T00:17:40;8.02;;;6.82;;
3841;SDS011;1936;47.074;15.336;2024-03-08T00:19:45;9.55;;;7.18;;
3841;SDS011;1936;47.074;15.336;2024-03-08T00:21:48;10.90;;;6.93;;
3841;SDS011;1936;47.074;15.336;2024-03-08T00:23:51;11.02;;;6.85;;
3841;SDS011;1936;47.074;15.336;2024-03-08T00:25:55;8.40;;;6.15;;
3841;SDS011;1936;47.074;15.336;2024-03-08T00:27:59;7.40;;;5.53;;
3841;SDS011;1936;47.074;15.336;2024-03-08T00:30:02;7.75;;;6.35;;
3841;SDS011;1936;47.074;15.336;2024-03-08T00:32:07;7.85;;;6.18;;
3841;SDS011;1936;47.074;15.336;2024-03-08T00:34:11;8.63;;;6.35;;
3841;SDS011;1936;47.074;15.336;2024-03-08T00:36:16;8.23;;;6.53;;
3841;SDS011;1936;47.074;15.336;2024-03-08T00:38:18;9.82;;;7.25;;
3841;SDS011;1936;47.074;15.336;2024-03-08T00:40:21;8.18;;;6.50;;
3841;SDS011;1936;47.074;15.336;2024-03-08T00:42:25;9.27;;;6.57;;
3841;SDS011;1936;47.074;15.336;2024-03-08T00:44:29;9.85;;;6.53;;
3841;SDS011;1936;47.074;15.336;2024-03-08T00:46:33;7.40;;;6.45;;
3841;SDS011;1936;47.074;15.336;2024-03-08T00:48:36;8.27;;;6.53;;
3841;SDS011;1936;47.074;15.336;2024-03-08T00:50:40;11.02;;;7.32;;
3841;SDS011;1936;47.074;15.336;2024-03-08T00:52:48;9.43;;;6.60;;
3841;SDS011;1936;47.074;15.336;2024-03-08T00:54:52;7.30;;;5.90;;
3841;SDS011;1936;47.074;15.336;2024-03-08T00:56:56;7.55;;;6.25;;
3841;SDS011;1936;47.074;15.336;2024-03-08T00:58:59;6.25;;;5.65;;
3841;SDS011;1936;47.074;15.336;2024-03-08T01:01:01;6.88;;;6.18;;
3841;SDS011;1936;47.074;15.336;2024-03-08T01:03:06;7.25;;;6.55;;
3841;SDS011;1936;47.074;15.336;2024-03-08T01:05:10;9.23;;;6.60;;
3841;SDS011;1936;47.074;15.336;2024-03-08T01:07:12;13.68;;;8.57;;
3841;SDS011;1936;47.074;15.336;2024-03-08T01:09:17;9.32;;;6.18;;
3841;SDS011;1936;47.074;15.336;2024-03-08T01:11:21;6.88;;;5.47;;
3841;SDS011;1936;47.074;15.336;2024-03-08T01:13:25;13.32;;;6.47;;
3841;SDS011;1936;47.074;15.336;2024-03-08T01:15:29;10.07;;;7.90;;
3841;SDS011;1936;47.074;15.336;2024-03-08T01:17:32;7.10;;;5.93;;
3841;SDS011;1936;47.074;15.336;2024-03-08T01:19:35;8.65;;;5.65;;
3841;SDS011;1936;47.074;15.336;2024-03-08T01:21:38;8.68;;;6.35;;
3841;SDS011;1936;47.074;15.336;2024-03-08T01:23:41;9.75;;;6.65;;
3841;SDS011;1936;47.074;15.336;2024-03-08T01:25:46;8.45;;;7.35;;
3841;SDS011;1936;47.074;15.336;2024-03-08T01:27:48;8.63;;;5.25;;
3841;SDS011;1936;47.074;15.336;2024-03-08T01:29:52;8.30;;;6.60;;
3841;SDS011;1936;47.074;15.336;2024-03-08T01:31:54;10.18;;;6.78;;
3841;SDS011;1936;47.074;15.336;2024-03-08T01:33:58;8.80;;;7.03;;
3841;SDS011;1936;47.074;15.336;2024-03-08T01:36:01;7.25;;;5.97;;
3841;SDS011;1936;47.074;15.336;2024-03-08T01:38:05;7.93;;;5.53;;
3841;SDS011;1936;47.074;15.336;2024-03-08T01:40:09;11.93;;;7.47;;
3841;SDS011;1936;47.074;15.336;2024-03-08T01:42:14;8.85;;;6.97;;
3841;SDS011;1936;47.074;15.336;2024-03-08T01:44:19;8.48;;;6.05;;
3841;SDS011;1936;47.074;15.336;2024-03-08T01:46:22;8.05;;;6.25;;
3841;SDS011;1936;47.074;15.336;2024-03-08T01:48:30;9.55;;;5.78;;
3841;SDS011;1936;47.074;15.336;2024-03-08T01:50:33;10.93;;;7.10;;
3841;SDS011;1936;47.074;15.336;2024-03-08T01:52:37;8.40;;;6.63;;
3841;SDS011;1936;47.074;15.336;2024-03-08T01:54:41;9.60;;;6.93;;
3841;SDS011;1936;47.074;15.336;2024-03-08T01:56:45;9.75;;;6.80;;
3841;SDS011;1936;47.074;15.336;2024-03-08T01:58:50;7.80;;;7.00;;
3841;SDS011;1936;47.074;15.336;2024-03-08T02:00:54;7.70;;;5.90;;
3841;SDS011;1936;47.074;15.336;2024-03-08T02:02:59;7.75;;;6.20;;
3841;SDS011;1936;47.074;15.336;2024-03-08T02:05:02;7.30;;;6.40;;
3841;SDS011;1936;47.074;15.336;2024-03-08T02:07:07;10.15;;;6.60;;
3841;SDS011;1936;47.074;15.336;2024-03-08T02:09:11;9.18;;;7.13;;
3841;SDS011;1936;47.074;15.336;2024-03-08T02:11:15;9.77;;;7.20;;
3841;SDS011;1936;47.074;15.336;2024-03-08T02:13:20;13.57;;;7.45;;
3841;SDS011;1936;47.074;15.336;2024-03-08T02:15:25;10.23;;;7.22;;
3841;SDS011;1936;47.074;15.336;2024-03-08T02:17:28;8.90;;;6.40;;
3841;SDS011;1936;47.074;15.336;2024-03-08T02:19:32;11.65;;;7.20;;
3841;SDS011;1936;47.074;15.336;2024-03-08T02:21:39;12.88;;;6.63;;
3841;SDS011;1936;47.074;15.336;2024-03-08T02:23:42;14.93;;;7.45;;
3841;SDS011;1936;47.074;15.336;2024-03-08T02:25:46;10.90;;;7.10;;
3841;SDS011;1936;47.074;15.336;2024-03-08T02:27:49;9.25;;;6.72;;
3841;SDS011;1936;47.074;15.336;2024-03-08T02:29:53;12.98;;;7.72;;
3841;SDS011;1936;47.074;15.336;2024-03-08T02:31:58;6.68;;;5.55;;
3841;SDS011;1936;47.074;15.336;2024-03-08T02:34:01;6.35;;;5.60;;
3841;SDS011;1936;47.074;15.336;2024-03-08T02:36:06;9.20;;;6.38;;
3841;SDS011;1936;47.074;15.336;2024-03-08T02:38:11;8.63;;;5.80;;
3841;SDS011;1936;47.074;15.336;2024-03-08T02:40:14;9.75;;;5.95;;
3841;SDS011;1936;47.074;15.336;2024-03-08T02:42:18;10.10;;;6.57;;
3841;SDS011;1936;47.074;15.336;2024-03-08T02:44:21;8.57;;;6.53;;
3841;SDS011;1936;47.074;15.336;2024-03-08T02:46:25;9.77;;;7.10;;
3841;SDS011;1936;47.074;15.336;2024-03-08T02:48:28;10.98;;;7.15;;
3841;SDS011;1936;47.074;15.336;2024-03-08T02:50:30;10.35;;;6.97;;
3841;SDS011;1936;47.074;15.336;2024-03-08T02:52:34;12.40;;;8.15;;
3841;SDS011;1936;47.074;15.336;2024-03-08T02:54:40;10.43;;;8.15;;
3841;SDS011;1936;47.074;15.336;2024-03-08T02:56:43;10.25;;;7.80;;
3841;SDS011;1936;47.074;15.336;2024-03-08T02:58:48;9.77;;;7.63;;
3841;SDS011;1936;47.074;15.336;2024-03-08T03:00:51;10.07;;;8.10;;
3841;SDS011;1936;47.074;15.336;2024-03-08T03:02:55;10.07;;;7.47;;
3841;SDS011;1936;47.074;15.336;2024-03-08T03:04:58;12.95;;;8.35;;
3841;SDS011;1936;47.074;15.336;2024-03-08T03:07:06;9.90;;;7.65;;
3841;SDS011;1936;47.074;15.336;2024-03-08T03:09:08;13.18;;;9.43;;
3841;SDS011;1936;47.074;15.336;2024-03-08T03:11:14;10.73;;;7.57;;
3841;SDS011;1936;47.074;15.336;2024-03-08T03:13:18;13.70;;;9.60;;
3841;SDS011;1936;47.074;15.336;2024-03-08T03:15:22;11.10;;;8.27;;
3841;SDS011;1936;47.074;15.336;2024-03-08T03:17:28;13.25;;;8.48;;
3841;SDS011;1936;47.074;15.336;2024-03-08T03:19:32;13.43;;;8.90;;
3841;SDS011;1936;47.074;15.336;2024-03-08T03:21:35;13.93;;;8.70;;
3841;SDS011;1936;47.074;15.336;2024-03-08T03:23:39;9.48;;;8.00;;
3841;SDS011;1936;47.074;15.336;2024-03-08T03:25:43;12.43;;;8.88;;
3841;SDS011;1936;47.074;15.336;2024-03-08T03:27:49;12.23;;;8.32;;
3841;SDS011;1936;47.074;15.336;2024-03-08T03:29:52;13.07;;;8.95;;
3841;SDS011;1936;47.074;15.336;2024-03-08T03:31:57;16.98;;;10.00;;
3841;SDS011;1936;47.074;15.336;2024-03-08T03:34:00;17.70;;;8.80;;
3841;SDS011;1936;47.074;15.336;2024-03-08T03:36:05;12.05;;;8.68;;
3841;SDS011;1936;47.074;15.336;2024-03-08T03:38:10;16.42;;;8.40;;
3841;SDS011;1936;47.074;15.336;2024-03-08T03:40:16;13.02;;;9.88;;
3841;SDS011;1936;47.074;15.336;2024-03-08T03:42:21;10.50;;;8.43;;
3841;SDS011;1936;47.074;15.336;2024-03-08T03:44:26;13.13;;;9.10;;
3841;SDS011;1936;47.074;15.336;2024-03-08T03:46:29;13.30;;;9.27;;
3841;SDS011;1936;47.074;15.336;2024-03-08T03:48:32;10.98;;;8.10;;
3841;SDS011;1936;47.074;15.336;2024-03-08T03:50:36;11.57;;;8.13;;
3841;SDS011;1936;47.074;15.336;2024-03-08T03:52:40;9.60;;;8.48;;
3841;SDS011;1936;47.074;15.336;2024-03-08T03:54:43;12.10;;;8.95;;
3841;SDS011;1936;47.074;15.336;2024-03-08T03:56:47;10.60;;;7.55;;
3841;SDS011;1936;47.074;15.336;2024-03-08T03:58:54;10.57;;;8.45;;
3841;SDS011;1936;47.074;15.336;2024-03-08T04:00:59;13.65;;;9.20;;
3841;SDS011;1936;47.074;15.336;2024-03-08T04:03:02;38.50;;;11.18;;
3841;SDS011;1936;47.074;15.336;2024-03-08T04:05:06;61.97;;;14.43;;
3841;SDS011;1936;47.074;15.336;2024-03-08T04:07:09;15.10;;;10.75;;
3841;SDS011;1936;47.074;15.336;2024-03-08T04:09:12;18.52;;;10.82;;
3841;SDS011;1936;47.074;15.336;2024-03-08T04:11:14;16.33;;;10.40;;
3841;SDS011;1936;47.074;15.336;2024-03-08T04:13:18;18.27;;;9.95;;
3841;SDS011;1936;47.074;15.336;2024-03-08T04:15:22;36.42;;;13.35;;
3841;SDS011;1936;47.074;15.336;2024-03-08T04:17:28;43.38;;;14.43;;
3841;SDS011;1936;47.074;15.336;2024-03-08T04:19:31;26.83;;;14.00;;
3841;SDS011;1936;47.074;15.336;2024-03-08T04:21:36;37.65;;;12.60;;
3841;SDS011;1936;47.074;15.336;2024-03-08T04:23:39;71.95;;;14.60;;
3841;SDS011;1936;47.074;15.336;2024-03-08T04:25:43;171.70;;;22.40;;
3841;SDS011;1936;47.074;15.336;2024-03-08T04:27:46;67.20;;;17.83;;
3841;SDS011;1936;47.074;15.336;2024-03-08T04:29:51;159.40;;;26.70;;
3841;SDS011;1936;47.074;15.336;2024-03-08T04:31:54;72.85;;;19.88;;
3841;SDS011;1936;47.074;15.336;2024-03-08T04:33:59;86.88;;;18.88;;
3841;SDS011;1936;47.074;15.336;2024-03-08T04:36:03;111.00;;;21.08;;
3841;SDS011;1936;47.074;15.336;2024-03-08T04:38:07;66.82;;;17.83;;
3841;SDS011;1936;47.074;15.336;2024-03-08T04:40:10;27.23;;;13.82;;
3841;SDS011;1936;47.074;15.336;2024-03-08T04:42:13;59.13;;;17.08;;
3841;SDS011;1936;47.074;15.336;2024-03-08T04:44:20;40.00;;;15.55;;
3841;SDS011;1936;47.074;15.336;2024-03-08T04:46:23;37.60;;;18.25;;
3841;SDS011;1936;47.074;15.336;2024-03-08T04:48:27;50.88;;;17.85;;
3841;SDS011;1936;47.074;15.336;2024-03-08T04:50:32;40.00;;;15.50;;
3841;SDS011;1936;47.074;15.336;2024-03-08T04:52:35;31.58;;;15.75;;
3841;SDS011;1936;47.074;15.336;2024-03-08T04:54:39;27.80;;;14.55;;
3841;SDS011;1936;47.074;15.336;2024-03-08T04:56:42;23.15;;;14.45;;
3841;SDS011;1936;47.074;15.336;2024-03-08T04:58:45;29.05;;;15.60;;
3841;SDS011;1936;47.074;15.336;2024-03-08T05:00:49;21.27;;;14.80;;
3841;SDS011;1936;47.074;15.336;2024-03-08T05:02:53;20.75;;;14.02;;
3841;SDS011;1936;47.074;15.336;2024-03-08T05:04:56;22.88;;;14.68;;
3841;SDS011;1936;47.074;15.336;2024-03-08T05:07:01;21.77;;;13.20;;
3841;SDS011;1936;47.074;15.336;2024-03-08T05:09:05;21.58;;;13.30;;
3841;SDS011;1936;47.074;15.336;2024-03-08T05:11:15;21.42;;;13.77;;
3841;SDS011;1936;47.074;15.336;2024-03-08T05:13:19;18.98;;;12.73;;
3841;SDS011;1936;47.074;15.336;2024-03-08T05:15:22;24.33;;;12.40;;
3841;SDS011;1936;47.074;15.336;2024-03-08T05:17:25;22.67;;;12.70;;
3841;SDS011;1936;47.074;15.336;2024-03-08T05:19:29;18.25;;;12.02;;
3841;SDS011;1936;47.074;15.336;2024-03-08T05:21:35;18.92;;;12.40;;
3841;SDS011;1936;47.074;15.336;2024-03-08T05:23:40;22.88;;;13.82;;
3841;SDS011;1936;47.074;15.336;2024-03-08T05:25:43;20.30;;;12.93;;
3841;SDS011;1936;47.074;15.336;2024-03-08T05:27:48;16.77;;;13.15;;
3841;SDS011;1936;47.074;15.336;2024-03-08T05:29:51;15.85;;;11.65;;
3841;SDS011;1936;47.074;15.336;2024-03-08T05:31:55;20.10;;;12.40;;
3841;SDS011;1936;47.074;15.336;2024-03-08T05:33:59;18.10;;;11.65;;
3841;SDS011;1936;47.074;15.336;2024-03-08T05:36:03;19.80;;;11.68;;
3841;SDS011;1936;47.074;15.336;2024-03-08T05:38:08;17.90;;;11.93;;
3841;SDS011;1936;47.074;15.336;2024-03-08T05:40:13;16.30;;;11.93;;
3841;SDS011;1936;47.074;15.336;2024-03-08T05:42:19;16.80;;;11.52;;
3841;SDS011;1936;47.074;15.336;2024-03-08T05:44:22;19.50;;;12.52;;
3841;SDS011;1936;47.074;15.336;2024-03-08T05:46:25;17.60;;;12.45;;
3841;SDS011;1936;47.074;15.336;2024-03-08T05:48:28;20.20;;;12.95;;
3841;SDS011;1936;47.074;15.336;2024-03-08T05:50:33;23.17;;;14.07;;
3841;SDS011;1936;47.074;15.336;2024-03-08T05:52:37;23.27;;;14.15;;
3841;SDS011;1936;47.074;15.336;2024-03-08T05:54:41;22.65;;;13.88;;
3841;SDS011;1936;47.074;15.336;2024-03-08T05:56:46;27.55;;;13.55;;
3841;SDS011;1936;47.074;15.336;2024-03-08T05:58:50;16.45;;;12.52;;
3841;SDS011;1936;47.074;15.336;2024-03-08T06:00:53;17.75;;;12.98;;
3841;SDS011;1936;47.074;15.336;2024-03-08T06:02:57;16.58;;;12.15;;
3841;SDS011;1936;47.074;15.336;2024-03-08T06:05:01;22.40;;;14.25;;
3841;SDS011;1936;47.074;15.336;2024-03-08T06:07:04;22.95;;;14.25;;
3841;SDS011;1936;47.074;15.336;2024-03-08T06:09:13;15.40;;;12.30;;
3841;SDS011;1936;47.074;15.336;2024-03-08T06:11:25;18.20;;;12.07;;
3841;SDS011;1936;47.074;15.336;2024-03-08T06:13:31;17.08;;;12.20;;
3841;SDS011;1936;47.074;15.336;2024-03-08T06:15:35;19.10;;;14.20;;
3841;SDS011;1936;47.074;15.336;2024-03-08T06:17:37;19.83;;;14.70;;
3841;SDS011;1936;47.074;15.336;2024-03-08T06:19:41;23.52;;;15.90;;
3841;SDS011;1936;47.074;15.336;2024-03-08T06:21:44;22.38;;;14.80;;
3841;SDS011;1936;47.074;15.336;2024-03-08T06:23:48;23.30;;;15.80;;
3841;SDS011;1936;47.074;15.336;2024-03-08T06:25:52;22.05;;;14.75;;
3841;SDS011;1936;47.074;15.336;2024-03-08T06:27:56;21.50;;;14.23;;
3841;SDS011;1936;47.074;15.336;2024-03-08T06:30:01;22.95;;;13.93;;
3841;SDS011;1936;47.074;15.336;2024-03-08T06:32:06;17.95;;;13.05;;
3841;SDS011;1936;47.074;15.336;2024-03-08T06:34:10;20.98;;;14.48;;
3841;SDS011;1936;47.074;15.336;2024-03-08T06:36:13;20.75;;;17.02;;
3841;SDS011;1936;47.074;15.336;2024-03-08T06:38:20;20.42;;;15.15;;
3841;SDS011;1936;47.074;15.336;2024-03-08T06:40:23;25.80;;;16.65;;
3841;SDS011;1936;47.074;15.336;2024-03-08T06:42:27;19.10;;;14.40;;
3841;SDS011;1936;47.074;15.336;2024-03-08T06:44:30;19.08;;;13.93;;
3841;SDS011;1936;47.074;15.336;2024-03-08T06:46:35;22.90;;;16.42;;
3841;SDS011;1936;47.074;15.336;2024-03-08T06:48:39;19.83;;;15.05;;
3841;SDS011;1936;47.074;15.336;2024-03-08T06:50:42;20.42;;;16.25;;
3841;SDS011;1936;47.074;15.336;2024-03-08T06:52:46;20.15;;;15.52;;
3841;SDS011;1936;47.074;15.336;2024-03-08T06:54:54;19.85;;;14.40;;
3841;SDS011;1936;47.074;15.336;2024-03-08T06:56:58;18.20;;;13.38;;
3841;SDS011;1936;47.074;15.336;2024-03-08T06:59:02;20.55;;;15.65;;
3841;SDS011;1936;47.074;15.336;2024-03-08T07:01:05;19.40;;;13.50;;
3841;SDS011;1936;47.074;15.336;2024-03-08T07:03:17;17.65;;;13.40;;
3841;SDS011;1936;47.074;15.336;2024-03-08T07:05:21;17.63;;;13.10;;
3841;SDS011;1936;47.074;15.336;2024-03-08T07:07:24;14.82;;;11.77;;
3841;SDS011;1936;47.074;15.336;2024-03-08T07:09:28;13.52;;;9.80;;
3841;SDS011;1936;47.074;15.336;2024-03-08T07:11:30;12.47;;;10.00;;
3841;SDS011;1936;47.074;15.336;2024-03-08T07:13:34;17.57;;;12.07;;
3841;SDS011;1936;47.074;15.336;2024-03-08T07:15:37;12.77;;;9.73;;
3841;SDS011;1936;47.074;15.336;2024-03-08T07:17:41;12.90;;;10.30;;
3841;SDS011;1936;47.074;15.336;2024-03-08T07:19:47;11.03;;;9.03;;
3841;SDS011;1936;47.074;15.336;2024-03-08T07:21:50;10.73;;;9.60;;
3841;SDS011;1936;47.074;15.336;2024-03-08T07:23:54;11.43;;;9.23;;
3841;SDS011;1936;47.074;15.336;2024-03-08T07:26:15;12.50;;;9.47;;
3841;SDS011;1936;47.074;15.336;2024-03-08T07:28:20;12.40;;;11.20;;
3841;SDS011;1936;47.074;15.336;2024-03-08T07:30:23;11.60;;;9.50;;
3841;SDS011;1936;47.074;15.336;2024-03-08T07:32:46;10.57;;;8.40;;
3841;SDS011;1936;47.074;15.336;2024-03-08T07:34:51;12.30;;;9.53;;
3841;SDS011;1936;47.074;15.336;2024-03-08T07:36:53;11.43;;;8.67;;
3841;SDS011;1936;47.074;15.336;2024-03-08T07:38:58;11.57;;;9.97;;
3841;SDS011;1936;47.074;15.336;2024-03-08T07:41:01;11.87;;;9.60;;
3841;SDS011;1936;47.074;15.336;2024-03-08T07:43:06;11.87;;;9.80;;
3841;SDS011;1936;47.074;15.336;2024-03-08T07:45:10;15.53;;;10.40;;
3841;SDS011;1936;47.074;15.336;2024-03-08T07:47:14;11.33;;;10.13;;
3841;SDS011;1936;47.074;15.336;2024-03-08T07:49:22;13.80;;;10.23;;
3841;SDS011;1936;47.074;15.336;2024-03-08T07:51:27;11.77;;;9.50;;
3841;SDS011;1936;47.074;15.336;2024-03-08T07:53:30;10.70;;;9.13;;
3841;SDS011;1936;47.074;15.336;2024-03-08T07:55:35;9.90;;;8.70;;
3841;SDS011;1936;47.074;15.336;2024-03-08T07:57:39;14.30;;;10.27;;
3841;SDS011;1936;47.074;15.336;2024-03-08T07:59:42;19.60;;;10.50;;
3841;SDS011;1936;47.074;15.336;2024-03-08T08:01:46;10.73;;;9.57;;
3841;SDS011;1936;47.074;15.336;2024-03-08T08:03:50;12.80;;;9.45;;
3841;SDS011;1936;47.074;15.336;2024-03-08T08:05:52;13.67;;;10.73;;
3841;SDS011;1936;47.074;15.336;2024-03-08T08:07:57;12.90;;;10.47;;
3841;SDS011;1936;47.074;15.336;2024-03-08T08:10:00;13.43;;;11.60;;
3841;SDS011;1936;47.074;15.336;2024-03-08T08:12:04;14.40;;;11.00;;
3841;SDS011;1936;47.074;15.336;2024-03-08T08:14:08;13.02;;;10.85;;
3841;SDS011;1936;47.074;15.336;2024-03-08T08:16:11;13.10;;;11.57;;
3841;SDS011;1936;47.074;15.336;2024-03-08T08:18:15;16.40;;;10.67;;
3841;SDS011;1936;47.074;15.336;2024-03-08T08:20:20;13.27;;;9.70;;
3841;SDS011;1936;47.074;15.336;2024-03-08T08:22:24;11.50;;;9.27;;
3841;SDS011;1936;47.074;15.336;2024-03-08T08:24:30;15.50;;;11.48;;
3841;SDS011;1936;47.074;15.336;2024-03-08T08:26:33;14.32;;;11.00;;
3841;SDS011;1936;47.074;15.336;2024-03-08T08:28:41;14.07;;;10.07;;
3841;SDS011;1936;47.074;15.336;2024-03-08T08:30:45;12.73;;;10.50;;
3841;SDS011;1936;47.074;15.336;2024-03-08T08:32:48;13.87;;;10.73;;
3841;SDS011;1936;47.074;15.336;2024-03-08T08:34:51;13.77;;;10.35;;
3841;SDS011;1936;47.074;15.336;2024-03-08T08:36:55;13.07;;;10.88;;
3841;SDS011;1936;47.074;15.336;2024-03-08T08:38:58;13.15;;;9.93;;
3841;SDS011;1936;47.074;15.336;2024-03-08T08:41:03;12.00;;;10.65;;
3841;SDS011;1936;47.074;15.336;2024-03-08T08:43:08;14.23;;;10.75;;
3841;SDS011;1936;47.074;15.336;2024-03-08T08:45:11;11.07;;;9.65;;
3841;SDS011;1936;47.074;15.336;2024-03-08T08:47:18;11.25;;;10.02;;
3841;SDS011;1936;47.074;15.336;2024-03-08T08:49:21;15.53;;;12.00;;
3841;SDS011;1936;47.074;15.336;2024-03-08T08:51:25;11.43;;;9.70;;
3841;SDS011;1936;47.074;15.336;2024-03-08T08:53:29;12.83;;;10.10;;
3841;SDS011;1936;47.074;15.336;2024-03-08T08:55:32;12.88;;;10.90;;
3841;SDS011;1936;47.074;15.336;2024-03-08T08:57:38;11.45;;;9.02;;
3841;SDS011;1936;47.074;15.336;2024-03-08T08:59:42;15.98;;;10.10;;
3841;SDS011;1936;47.074;15.336;2024-03-08T09:01:47;13.57;;;10.13;;
3841;SDS011;1936;47.074;15.336;2024-03-08T09:03:52;13.57;;;10.32;;
3841;SDS011;1936;47.074;15.336;2024-03-08T09:05:55;15.50;;;11.48;;
3841;SDS011;1936;47.074;15.336;2024-03-08T09:07:58;12.65;;;10.43;;
3841;SDS011;1936;47.074;15.336;2024-03-08T09:10:02;10.30;;;8.87;;
3841;SDS011;1936;47.074;15.336;2024-03-08T09:12:08;14.67;;;9.40;;
3841;SDS011;1936;47.074;15.336;2024-03-08T09:14:16;13.95;;;10.38;;
3841;SDS011;1936;47.074;15.336;2024-03-08T09:16:19;12.00;;;9.43;;
3841;SDS011;1936;47.074;15.336;2024-03-08T09:18:23;13.73;;;10.57;;
3841;SDS011;1936;47.074;15.336;2024-03-08T09:20:26;12.80;;;10.23;;
3841;SDS011;1936;47.074;15.336;2024-03-08T09:22:31;12.00;;;10.17;;
3841;SDS011;1936;47.074;15.336;2024-03-08T09:24:33;13.33;;;10.37;;
3841;SDS011;1936;47.074;15.336;2024-03-08T09:26:37;11.90;;;9.90;;
3841;SDS011;1936;47.074;15.336;2024-03-08T09:28:42;14.60;;;10.33;;
3841;SDS011;1936;47.074;15.336;2024-03-08T09:30:48;10.90;;;9.10;;
3841;SDS011;1936;47.074;15.336;2024-03-08T09:33:00;14.47;;;10.17;;
3841;SDS011;1936;47.074;15.336;2024-03-08T09:35:04;13.07;;;9.50;;
3841;SDS011;1936;47.074;15.336;2024-03-08T09:37:09;16.57;;;10.07;;
3841;SDS011;1936;47.074;15.336;2024-03-08T09:39:13;10.57;;;9.47;;
3841;SDS011;1936;47.074;15.336;2024-03-08T09:41:18;11.77;;;8.20;;
3841;SDS011;1936;47.074;15.336;2024-03-08T09:43:21;13.80;;;9.30;;
3841;SDS011;1936;47.074;15.336;2024-03-08T09:45:26;9.63;;;8.10;;
3841;SDS011;1936;47.074;15.336;2024-03-08T09:47:32;9.40;;;7.67;;
3841;SDS011;1936;47.074;15.336;2024-03-08T09:49:40;10.40;;;9.47;;
3841;SDS011;1936;47.074;15.336;2024-03-08T09:51:45;8.60;;;7.30;;
3841;SDS011;1936;47.074;15.336;2024-03-08T09:53:50;7.90;;;6.90;;
3841;SDS011;1936;47.074;15.336;2024-03-08T09:55:52;8.50;;;6.87;;
3841;SDS011;1936;47.074;15.336;2024-03-08T09:57:56;9.80;;;7.47;;
3841;SDS011;1936;47.074;15.336;2024-03-08T10:00:38;8.83;;;7.93;;
3841;SDS011;1936;47.074;15.336;2024-03-08T10:02:44;6.67;;;6.07;;
3841;SDS011;1936;47.074;15.336;2024-03-08T10:04:48;8.13;;;5.83;;
3841;SDS011;1936;47.074;15.336;2024-03-08T10:06:55;8.37;;;7.33;;
3841;SDS011;1936;47.074;15.336;2024-03-08T10:09:00;8.93;;;7.07;;
3841;SDS011;1936;47.074;15.336;2024-03-08T10:11:04;8.93;;;6.80;;
3841;SDS011;1936;47.074;15.336;2024-03-08T10:13:07;6.70;;;5.90;;
3841;SDS011;1936;47.074;15.336;2024-03-08T10:15:13;7.17;;;6.17;;
3841;SDS011;1936;47.074;15.336;2024-03-08T10:17:19;9.67;;;6.77;;
3841;SDS011;1936;47.074;15.336;2024-03-08T10:19:24;10.00;;;8.30;;
3841;SDS011;1936;47.074;15.336;2024-03-08T10:21:28;9.23;;;8.33;;
3841;SDS011;1936;47.074;15.336;2024-03-08T10:23:31;7.57;;;6.80;;
3841;SDS011;1936;47.074;15.336;2024-03-08T10:25:36;10.43;;;7.30;;
3841;SDS011;1936;47.074;15.336;2024-03-08T10:27:41;10.67;;;8.53;;
3841;SDS011;1936;47.074;15.336;2024-03-08T10:29:46;8.50;;;7.17;;
3841;SDS011;1936;47.074;15.336;2024-03-08T10:31:53;8.00;;;7.20;;
3841;SDS011;1936;47.074;15.336;2024-03-08T10:33:57;8.33;;;6.73;;
3841;SDS011;1936;47.074;15.336;2024-03-08T10:36:02;9.53;;;8.20;;
3841;SDS011;1936;47.074;15.336;2024-03-08T10:38:08;15.40;;;8.73;;
3841;SDS011;1936;47.074;15.336;2024-03-08T10:40:18;10.07;;;8.60;;
3841;SDS011;1936;47.074;15.336;2024-03-08T10:42:22;8.50;;;7.60;;
3841;SDS011;1936;47.074;15.336;2024-03-08T10:47:00;8.83;;;7.93;;
3841;SDS011;1936;47.074;15.336;2024-03-08T10:49:08;9.80;;;8.80;;
3841;SDS011;1936;47.074;15.336;2024-03-08T10:51:20;8.70;;;7.77;;
3841;SDS011;1936;47.074;15.336;2024-03-08T10:53:24;9.50;;;8.30;;
3841;SDS011;1936;47.074;15.336;2024-03-08T10:55:30;9.30;;;8.40;;
3841;SDS011;1936;47.074;15.336;2024-03-08T10:57:35;10.10;;;8.10;;
3841;SDS011;1936;47.074;15.336;2024-03-08T10:59:41;11.37;;;8.00;;
3841;SDS011;1936;47.074;15.336;2024-03-08T11:01:45;9.33;;;8.03;;
3841;SDS011;1936;47.074;15.336;2024-03-08T11:03:49;9.87;;;7.83;;
3841;SDS011;1936;47.074;15.336;2024-03-08T11:05:55;10.23;;;7.77;;
3841;SDS011;1936;47.074;15.336;2024-03-08T11:08:00;9.80;;;8.80;;
3841;SDS011;1936;47.074;15.336;2024-03-08T11:10:04;12.40;;;9.33;;
3841;SDS011;1936;47.074;15.336;2024-03-08T11:12:18;10.30;;;8.93;;
3841;SDS011;1936;47.074;15.336;2024-03-08T11:16:45;10.93;;;9.93;;
3841;SDS011;1936;47.074;15.336;2024-03-08T11:18:50;9.63;;;8.30;;
3841;SDS011;1936;47.074;15.336;2024-03-08T11:20:56;8.90;;;8.00;;
3841;SDS011;1936;47.074;15.336;2024-03-08T11:23:03;10.40;;;8.50;;
3841;SDS011;1936;47.074;15.336;2024-03-08T11:27:33;13.13;;;8.90;;
3841;SDS011;1936;47.074;15.336;2024-03-08T11:29:36;8.83;;;7.93;;
3841;SDS011;1936;47.074;15.336;2024-03-08T11:31:41;10.17;;;8.77;;
3841;SDS011;1936;47.074;15.336;2024-03-08T11:33:47;9.57;;;8.37;;
3841;SDS011;1936;47.074;15.336;2024-03-08T11:35:51;8.63;;;7.70;;
3841;SDS011;1936;47.074;15.336;2024-03-08T11:37:56;11.60;;;9.20;;
3841;SDS011;1936;47.074;15.336;2024-03-08T11:40:08;12.27;;;8.60;;
3841;SDS011;1936;47.074;15.336;2024-03-08T11:42:18;8.33;;;7.50;;
3841;SDS011;1936;47.074;15.336;2024-03-08T11:44:24;9.53;;;8.03;;
3841;SDS011;1936;47.074;15.336;2024-03-08T11:46:30;10.47;;;7.53;;
3841;SDS011;1936;47.074;15.336;2024-03-08T11:48:33;9.97;;;8.37;;
3841;SDS011;1936;47.074;15.336;2024-03-08T11:50:37;8.83;;;7.43;;
3841;SDS011;1936;47.074;15.336;2024-03-08T11:52:41;8.37;;;7.10;;
3841;SDS011;1936;47.074;15.336;2024-03-08T11:54:48;7.70;;;6.33;;
3841;SDS011;1936;47.074;15.336;2024-03-08T11:56:57;11.13;;;7.03;;
3841;SDS011;1936;47.074;15.336;2024-03-08T11:59:02;11.90;;;7.00;;
3841;SDS011;1936;47.074;15.336;2024-03-08T12:01:07;8.97;;;7.20;;
3841;SDS011;1936;47.074;15.336;2024-03-08T12:03:14;8.70;;;7.40;;
3841;SDS011;1936;47.074;15.336;2024-03-08T12:05:17;13.00;;;8.40;;
3841;SDS011;1936;47.074;15.336;2024-03-08T12:07:21;7.60;;;6.90;;
3841;SDS011;1936;47.074;15.336;2024-03-08T12:09:25;9.10;;;7.43;;
3841;SDS011;1936;47.074;15.336;2024-03-08T12:11:27;8.60;;;7.47;;
3841;SDS011;1936;47.074;15.336;2024-03-08T12:13:36;8.63;;;7.80;;
3841;SDS011;1936;47.074;15.336;2024-03-08T12:15:41;8.63;;;7.63;;
3841;SDS011;1936;47.074;15.336;2024-03-08T12:17:46;15.50;;;7.10;;
3841;SDS011;1936;47.074;15.336;2024-03-08T12:19:50;7.77;;;6.87;;
3841;SDS011;1936;47.074;15.336;2024-03-08T12:21:56;9.90;;;8.00;;
3841;SDS011;1936;47.074;15.336;2024-03-08T12:24:03;6.67;;;6.07;;
3841;SDS011;1936;47.074;15.336;2024-03-08T12:26:10;9.20;;;7.17;;
3841;SDS011;1936;47.074;15.336;2024-03-08T12:28:15;8.50;;;7.60;;
3841;SDS011;1936;47.074;15.336;2024-03-08T12:30:23;9.53;;;8.00;;
3841;SDS011;1936;47.074;15.336;2024-03-08T12:32:28;8.37;;;7.50;;
3841;SDS011;1936;47.074;15.336;2024-03-08T12:34:32;9.37;;;7.57;;
3841;SDS011;1936;47.074;15.336;2024-03-08T12:36:37;9.20;;;8.20;;
3841;SDS011;1936;47.074;15.336;2024-03-08T12:38:43;9.07;;;7.83;;